Time;durP1;ratioP1;P1;durP2;ratioP2;P2;SDS_P1;SDS_P2;PMS_P1;PMS_P2;Temp;Humidity;BMP_temperature;BMP_pressure;BME280_temperature;BME280_humidity;BME280_pressure;Samples;Min_cycle;Max_cycle;Signal;HPM_P1;HPM_P2
2023/03/02 00:02:23;;;;;;;20.00;9.98;;;1.00;99.90;;;;;;4686991;28;9999972;-72
2023/03/02 00:04:59;;;;;;;18.00;9.63;;;1.00;99.90;;;;;;5037663;28;20037;-73
2023/03/02 00:07:37;;;;;;;15.68;9.35;;;1.00;99.90;;;;;;5030882;28;20055;-72
2023/03/02 00:10:07;;;;;;;17.20;9.85;;;1.00;99.90;;;;;;5031794;28;20029;-73
2023/03/02 00:12:37;;;;;;;16.13;9.57;;;0.90;99.90;;;;;;5036591;28;20029;-73
2023/03/02 00:15:08;;;;;;;16.02;9.43;;;1.00;99.90;;;;;;5025649;28;20123;-73
2023/03/02 00:17:41;;;;;;;16.90;10.10;;;1.00;99.90;;;;;;5042745;28;20432;-73
2023/03/02 00:20:10;;;;;;;17.42;9.48;;;1.00;99.90;;;;;;5042449;28;20415;-73
2023/03/02 00:22:46;;;;;;;17.42;8.77;;;1.10;99.90;;;;;;5039410;28;20029;-73
2023/03/02 00:25:14;;;;;;;17.58;9.02;;;1.10;99.90;;;;;;5033353;28;20198;-73
2023/03/02 00:27:50;;;;;;;13.93;8.63;;;1.10;99.90;;;;;;5031867;28;20560;-73
2023/03/02 00:30:17;;;;;;;17.25;9.57;;;1.20;99.90;;;;;;5033743;28;20041;-73
2023/03/02 00:32:52;;;;;;;15.68;8.93;;;1.20;99.90;;;;;;5037481;28;20053;-72
2023/03/02 00:35:20;;;;;;;17.35;9.00;;;1.10;99.90;;;;;;5035218;28;20100;-73
2023/03/02 00:37:57;;;;;;;16.27;9.05;;;1.00;99.90;;;;;;5036844;28;20033;-74
2023/03/02 00:40:24;;;;;;;16.20;9.98;;;1.10;99.90;;;;;;5034411;28;20033;-72
2023/03/02 00:42:59;;;;;;;16.88;9.50;;;1.10;99.90;;;;;;5040597;28;20061;-73
2023/03/02 00:45:24;;;;;;;18.83;9.52;;;1.10;99.90;;;;;;5031561;28;20490;-73
2023/03/02 00:47:52;;;;;;;16.60;9.20;;;1.10;99.90;;;;;;5034956;28;20044;-73
2023/03/02 00:50:19;;;;;;;16.92;9.98;;;1.10;99.90;;;;;;5025970;28;21909;-74
2023/03/02 00:52:59;;;;;;;15.93;8.93;;;1.20;99.90;;;;;;5031082;28;20083;-73
2023/03/02 00:55:27;;;;;;;22.88;9.60;;;1.10;99.90;;;;;;5033282;28;20471;-73
2023/03/02 00:57:56;;;;;;;19.20;8.73;;;1.10;99.90;;;;;;5041538;28;20489;-73
2023/03/02 01:00:28;;;;;;;17.27;9.25;;;1.10;99.90;;;;;;5037651;28;20032;-74
2023/03/02 01:03:02;;;;;;;16.93;9.00;;;1.10;99.90;;;;;;5037691;28;20063;-73
2023/03/02 01:05:30;;;;;;;16.52;9.65;;;1.10;99.90;;;;;;5037424;28;20319;-73
2023/03/02 01:08:07;;;;;;;13.40;8.18;;;1.10;99.90;;;;;;5038032;28;20531;-73
2023/03/02 01:10:38;;;;;;;18.02;9.65;;;1.10;99.90;;;;;;5040666;28;20033;-73
2023/03/02 01:13:12;;;;;;;18.65;8.98;;;1.10;99.90;;;;;;5038193;28;20041;-73
2023/03/02 01:15:40;;;;;;;14.85;8.77;;;1.10;99.90;;;;;;5042078;28;20029;-73
2023/03/02 01:18:14;;;;;;;17.73;9.68;;;1.00;99.90;;;;;;5037842;28;20076;-73
2023/03/02 01:20:42;;;;;;;16.52;8.45;;;1.00;99.90;;;;;;5033314;28;21261;-73
2023/03/02 01:23:17;;;;;;;22.55;9.25;;;1.00;99.90;;;;;;5037874;28;20432;-73
2023/03/02 01:25:44;;;;;;;15.30;9.18;;;1.00;99.90;;;;;;5042940;28;20029;-73
2023/03/02 01:28:20;;;;;;;17.42;9.25;;;0.90;99.90;;;;;;5036995;28;20529;-73
2023/03/02 01:30:47;;;;;;;13.90;8.52;;;0.90;99.90;;;;;;5039300;28;20057;-72
2023/03/02 01:33:23;;;;;;;17.08;10.02;;;0.90;99.90;;;;;;5036865;28;20029;-73
2023/03/02 01:35:49;;;;;;;16.77;9.60;;;0.90;99.90;;;;;;5039696;28;20017;-73
2023/03/02 01:38:15;;;;;;;16.15;9.35;;;0.90;99.90;;;;;;5038379;28;20029;-73
2023/03/02 01:40:44;;;;;;;16.63;9.57;;;0.80;99.90;;;;;;5044340;28;20021;-73
2023/03/02 01:43:22;;;;;;;14.95;9.25;;;0.80;99.90;;;;;;5040031;28;20025;-73
2023/03/02 01:45:55;;;;;;;15.23;9.07;;;0.80;99.90;;;;;;5041909;28;20036;-74
2023/03/02 01:48:44;;;;;;;14.95;8.57;;;0.80;99.90;;;;;;5030630;28;20048;-72
2023/03/02 01:51:21;;;;;;;19.58;9.18;;;;;;;;;;5033350;28;20059;-73
2023/03/02 01:53:52;;;;;;;19.35;8.93;;;;;;;;;;5039443;28;20390;-73
2023/03/02 01:56:33;;;;;;;18.33;9.70;;;0.70;99.90;;;;;;5036235;28;20104;-73
2023/03/02 01:59:07;;;;;;;15.63;9.25;;;0.80;99.90;;;;;;5025326;28;20026;-74
2023/03/02 02:01:38;;;;;;;15.20;8.68;;;;;;;;;;5041445;28;20029;-74
2023/03/02 02:04:11;;;;;;;17.95;9.13;;;0.70;99.90;;;;;;5032985;28;20455;-73
2023/03/02 02:06:50;;;;;;;17.40;9.47;;;;;;;;;;5038685;28;20033;-74
2023/03/02 02:09:25;;;;;;;18.83;9.07;;;0.80;99.90;;;;;;5044703;28;20748;-73
2023/03/02 02:12:00;;;;;;;14.93;8.65;;;0.80;99.90;;;;;;5034490;28;20422;-73
2023/03/02 02:14:30;;;;;;;15.82;9.23;;;;;;;;;;5039102;28;20494;-73
2023/03/02 02:17:01;;;;;;;15.73;9.38;;;0.70;99.90;;;;;;5034880;28;20037;-73
2023/03/02 02:19:39;;;;;;;15.85;9.48;;;;;;;;;;5037962;28;20037;-72
2023/03/02 02:22:12;;;;;;;17.48;9.23;;;;;;;;;;5036377;28;20758;-73
2023/03/02 02:24:56;;;;;;;17.65;9.63;;;0.60;99.90;;;;;;5039003;28;20053;-73
2023/03/02 02:27:32;;;;;;;17.65;9.18;;;0.60;99.90;;;;;;5035158;28;20138;-73
2023/03/02 02:30:06;;;;;;;16.95;9.25;;;0.60;99.90;;;;;;5030789;28;20128;-73
2023/03/02 02:32:43;;;;;;;15.52;8.77;;;0.50;99.90;;;;;;5032760;28;20532;-73
2023/03/02 02:35:21;;;;;;;17.23;9.43;;;0.50;99.90;;;;;;5032316;28;20069;-73
2023/03/02 02:38:05;;;;;;;15.07;8.43;;;0.50;99.90;;;;;;5031230;28;20037;-72
2023/03/02 02:41:12;;;;;;;17.98;9.15;;;0.50;99.90;;;;;;5031738;28;20029;-72
2023/03/02 02:43:41;;;;;;;15.55;8.18;;;0.60;99.90;;;;;;4962207;28;20078;-73
2023/03/02 02:46:10;;;;;;;14.75;8.80;;;0.60;99.90;;;;;;5016946;28;20468;-73
2023/03/02 02:48:39;;;;;;;17.48;8.70;;;0.60;99.90;;;;;;5034351;28;20041;-73
2023/03/02 02:51:07;;;;;;;15.30;9.07;;;0.70;99.90;;;;;;5032409;28;20064;-73
2023/03/02 02:54:02;;;;;;;14.60;8.80;;;0.70;99.90;;;;;;5036253;28;20099;-73
2023/03/02 02:56:42;;;;;;;18.08;9.65;;;0.70;99.90;;;;;;5034249;28;20025;-73
2023/03/02 02:59:22;;;;;;;17.83;8.48;;;0.70;99.90;;;;;;5032607;28;23442;-73
2023/03/02 03:01:55;;;;;;;18.27;8.90;;;0.70;99.90;;;;;;5041432;28;20037;-73
2023/03/02 03:04:35;;;;;;;15.43;8.77;;;0.70;99.90;;;;;;5042545;28;20025;-72
2023/03/02 03:07:14;;;;;;;15.57;8.82;;;0.70;99.90;;;;;;5048235;28;20025;-73
2023/03/02 03:09:55;;;;;;;15.25;8.52;;;0.70;99.90;;;;;;5037543;28;20029;-73
2023/03/02 03:12:30;;;;;;;13.95;8.50;;;0.60;99.90;;;;;;5040827;28;20028;-73
2023/03/02 03:15:04;;;;;;;17.02;9.10;;;0.60;99.90;;;;;;5058109;28;20033;-73
2023/03/02 03:17:37;;;;;;;15.15;8.52;;;0.60;99.90;;;;;;5059238;28;20448;-73
2023/03/02 03:20:14;;;;;;;15.43;8.52;;;0.60;99.90;;;;;;5038448;28;20029;-73
2023/03/02 03:22:48;;;;;;;15.65;8.60;;;0.60;99.90;;;;;;5043630;28;20045;-73
2023/03/02 03:25:18;;;;;;;15.13;8.70;;;0.60;99.90;;;;;;5048036;28;20512;-73
2023/03/02 03:27:48;;;;;;;16.17;8.95;;;0.50;99.90;;;;;;5031572;28;20049;-73
2023/03/02 03:30:23;;;;;;;19.92;9.13;;;0.50;99.90;;;;;;5042811;28;20029;-73
2023/03/02 03:32:55;;;;;;;16.55;8.50;;;0.50;99.90;;;;;;5036431;28;20872;-73
2023/03/02 03:35:21;;;;;;;17.52;9.10;;;0.50;99.90;;;;;;5052994;28;20041;-73
2023/03/02 03:37:50;;;;;;;15.50;8.75;;;0.50;99.90;;;;;;5037767;28;20036;-72
2023/03/02 03:40:24;;;;;;;14.45;8.15;;;0.50;99.90;;;;;;5042279;28;20037;-73
2023/03/02 03:42:56;;;;;;;14.88;7.85;;;0.50;99.90;;;;;;5046754;28;20657;-72
2023/03/02 03:45:28;;;;;;;15.15;8.27;;;0.50;99.90;;;;;;5047601;28;20489;-73
2023/03/02 03:48:00;;;;;;;16.17;8.63;;;0.40;99.90;;;;;;5055581;28;20041;-73
2023/03/02 03:50:27;;;;;;;12.35;7.90;;;0.30;99.90;;;;;;5043539;28;20120;-73
2023/03/02 03:52:53;;;;;;;14.27;8.38;;;0.20;99.90;;;;;;5042049;28;20025;-73
2023/03/02 03:55:20;;;;;;;17.27;9.13;;;0.20;99.90;;;;;;5041117;28;20024;-73
2023/03/02 03:57:46;;;;;;;16.88;10.05;;;0.10;99.90;;;;;;5042600;28;20492;-74
2023/03/02 04:00:15;;;;;;;17.95;9.07;;;0.10;99.90;;;;;;5044473;28;20065;-73
2023/03/02 04:02:52;;;;;;;18.40;9.18;;;0.20;99.90;;;;;;5056834;28;20047;-73
2023/03/02 04:05:21;;;;;;;15.82;8.85;;;0.20;99.90;;;;;;5047893;28;20116;-73
2023/03/02 04:07:54;;;;;;;18.83;9.70;;;0.30;99.90;;;;;;5055883;28;20042;-73
2023/03/02 04:10:28;;;;;;;15.93;8.98;;;0.40;99.90;;;;;;5044735;28;20036;-72
2023/03/02 04:13:01;;;;;;;17.88;9.45;;;0.40;99.90;;;;;;5044412;28;20028;-73
2023/03/02 04:15:36;;;;;;;18.27;9.43;;;0.40;99.90;;;;;;5032832;28;20025;-73
2023/03/02 04:18:08;;;;;;;20.55;9.93;;;0.40;99.90;;;;;;5051282;28;20021;-73
2023/03/02 04:20:37;;;;;;;16.05;9.43;;;0.40;99.90;;;;;;5037451;28;20017;-73
2023/03/02 04:23:10;;;;;;;16.95;9.30;;;0.40;99.90;;;;;;5069113;28;20484;-74
2023/03/02 04:25:42;;;;;;;16.83;8.57;;;0.40;99.90;;;;;;5070670;28;20109;-74
2023/03/02 04:28:15;;;;;;;19.90;10.32;;;0.50;99.90;;;;;;5045949;28;20029;-73
2023/03/02 04:30:47;;;;;;;18.00;9.75;;;0.50;99.90;;;;;;5050837;28;20044;-74
2023/03/02 04:33:21;;;;;;;18.02;9.63;;;0.50;99.90;;;;;;5058631;28;20036;-73
2023/03/02 04:35:51;;;;;;;17.23;9.95;;;0.50;99.90;;;;;;5053311;28;20032;-73
2023/03/02 04:38:28;;;;;;;17.50;9.32;;;0.50;99.90;;;;;;5043715;28;20063;-73
2023/03/02 04:41:00;;;;;;;17.80;9.48;;;0.50;99.90;;;;;;5042875;28;20043;-74
2023/03/02 04:43:33;;;;;;;22.23;10.15;;;0.50;99.90;;;;;;5045203;28;20032;-73
2023/03/02 04:46:04;;;;;;;18.65;9.50;;;0.50;99.90;;;;;;5038323;28;20761;-73
2023/03/02 04:48:37;;;;;;;18.70;9.23;;;0.50;99.90;;;;;;5045037;28;20025;-73
2023/03/02 04:51:17;;;;;;;16.15;9.18;;;0.50;99.90;;;;;;5045278;28;20041;-73
2023/03/02 04:53:53;;;;;;;16.33;8.18;;;0.40;99.90;;;;;;5045055;28;20056;-73
2023/03/02 04:56:28;;;;;;;18.33;9.13;;;0.50;99.90;;;;;;5044524;28;20596;-72
2023/03/02 04:59:00;;;;;;;16.35;9.38;;;0.50;99.90;;;;;;5044487;28;20083;-73
2023/03/02 05:01:33;;;;;;;18.02;8.82;;;0.50;99.90;;;;;;5038393;28;20041;-73
2023/03/02 05:04:01;;;;;;;13.88;6.88;;;0.50;99.90;;;;;;5048803;28;20119;-73
2023/03/02 05:06:38;;;;;;;15.35;8.50;;;0.50;99.90;;;;;;5041816;28;20406;-73
2023/03/02 05:09:12;;;;;;;16.88;9.25;;;0.40;99.90;;;;;;5036769;28;20722;-73
2023/03/02 05:11:48;;;;;;;18.00;8.98;;;0.40;99.90;;;;;;5045943;28;20064;-73
2023/03/02 05:14:25;;;;;;;20.90;9.43;;;0.40;99.90;;;;;;5047380;28;20053;-73
2023/03/02 05:16:52;;;;;;;21.38;10.38;;;0.40;99.90;;;;;;5044020;28;20025;-72
2023/03/02 05:19:25;;;;;;;21.00;10.30;;;0.40;99.90;;;;;;5047569;28;20020;-73
2023/03/02 05:22:01;;;;;;;19.05;9.77;;;0.40;99.90;;;;;;5047873;28;20033;-73
2023/03/02 05:24:26;;;;;;;17.77;9.52;;;0.40;99.90;;;;;;5038733;28;20025;-73
2023/03/02 05:26:58;;;;;;;16.73;9.27;;;0.30;99.90;;;;;;5043307;28;20035;-73
2023/03/02 05:29:34;;;;;;;17.02;9.55;;;0.30;99.90;;;;;;5043763;28;20032;-73
2023/03/02 05:32:03;;;;;;;18.63;9.10;;;0.30;99.90;;;;;;5048904;28;20505;-73
2023/03/02 05:34:38;;;;;;;17.83;9.50;;;0.30;99.90;;;;;;5043312;28;20037;-73
2023/03/02 05:37:10;;;;;;;17.65;9.52;;;0.30;99.90;;;;;;5047377;28;20037;-73
2023/03/02 05:39:44;;;;;;;14.75;7.10;;;0.30;99.90;;;;;;5044566;28;20448;-73
2023/03/02 05:42:12;;;;;;;18.33;10.32;;;0.30;99.90;;;;;;5045916;28;20037;-73
2023/03/02 05:44:45;;;;;;;16.73;9.73;;;0.30;99.90;;;;;;5040312;28;20026;-72
2023/03/02 05:47:13;;;;;;;17.70;9.73;;;0.30;99.90;;;;;;5045338;28;20037;-73
2023/03/02 05:49:43;;;;;;;16.63;9.35;;;0.30;99.90;;;;;;5047398;28;20040;-73
2023/03/02 05:52:15;;;;;;;16.40;9.27;;;0.30;99.90;;;;;;5055527;28;20025;-74
2023/03/02 05:54:48;;;;;;;17.92;9.50;;;0.30;99.90;;;;;;5042478;28;20656;-73
2023/03/02 05:57:16;;;;;;;19.05;9.63;;;0.30;99.90;;;;;;5039532;28;20021;-74
2023/03/02 05:59:46;;;;;;;18.50;9.77;;;0.30;99.90;;;;;;5047803;28;20123;-73
2023/03/02 06:02:17;;;;;;;18.67;10.23;;;0.20;99.90;;;;;;5035650;28;20027;-73
2023/03/02 06:04:50;;;;;;;16.83;10.00;;;0.20;99.90;;;;;;5048329;28;20104;-73
2023/03/02 06:07:18;;;;;;;18.63;9.75;;;0.10;99.90;;;;;;5047748;28;20017;-73
2023/03/02 06:09:48;;;;;;;19.02;10.18;;;0.10;99.90;;;;;;5038617;28;20636;-73
2023/03/02 06:12:14;;;;;;;19.60;10.02;;;0.10;99.90;;;;;;5038263;28;20139;-73
2023/03/02 06:14:52;;;;;;;18.58;9.80;;;0.20;99.90;;;;;;5043167;28;20036;-73
2023/03/02 06:17:21;;;;;;;21.58;10.23;;;0.20;99.90;;;;;;5041716;28;20104;-73
2023/03/02 06:19:47;;;;;;;17.58;9.85;;;0.20;99.90;;;;;;5032074;28;20068;-73
2023/03/02 06:22:18;;;;;;;20.52;10.15;;;0.20;99.90;;;;;;5040367;28;20033;-73
2023/03/02 06:24:44;;;;;;;20.65;9.48;;;0.30;99.90;;;;;;5046663;28;20432;-73
2023/03/02 06:27:12;;;;;;;20.55;9.80;;;0.30;99.90;;;;;;5033996;28;20033;-73
2023/03/02 06:29:38;;;;;;;19.60;10.63;;;0.30;99.90;;;;;;5032994;28;20030;-73
2023/03/02 06:32:09;;;;;;;21.17;10.10;;;0.30;99.90;;;;;;5032176;28;20076;-74
2023/03/02 06:34:35;;;;;;;17.73;9.38;;;0.30;99.90;;;;;;5023996;28;20750;-74
2023/03/02 06:37:03;;;;;;;19.95;9.75;;;0.40;99.90;;;;;;5034928;28;20111;-74
2023/03/02 06:39:29;;;;;;;18.83;10.07;;;0.40;99.90;;;;;;5042359;28;20021;-74
2023/03/02 06:41:55;;;;;;;16.38;9.60;;;0.40;99.90;;;;;;5040904;28;20025;-74
2023/03/02 06:44:21;;;;;;;20.08;9.65;;;0.40;99.90;;;;;;5040896;28;20029;-74
2023/03/02 06:46:47;;;;;;;20.15;9.25;;;0.40;99.90;;;;;;5028399;28;20033;-73
2023/03/02 06:49:12;;;;;;;19.08;10.02;;;0.40;99.90;;;;;;5042710;28;20025;-74
2023/03/02 06:51:38;;;;;;;18.63;9.32;;;0.50;99.90;;;;;;5042910;28;20032;-74
2023/03/02 06:54:07;;;;;;;18.73;9.80;;;0.50;99.90;;;;;;5041027;28;20025;-74
2023/03/02 06:56:34;;;;;;;19.45;9.32;;;0.50;99.90;;;;;;5039369;28;20120;-75
2023/03/02 06:58:59;;;;;;;16.13;8.88;;;0.50;99.90;;;;;;5039162;28;20103;-75
2023/03/02 07:01:27;;;;;;;19.38;9.93;;;0.50;99.90;;;;;;5037273;28;20024;-75
2023/03/02 07:03:55;;;;;;;21.80;10.05;;;0.50;99.90;;;;;;5031860;28;20760;-74
2023/03/02 07:06:21;;;;;;;19.73;9.45;;;0.50;99.90;;;;;;5030678;28;20029;-74
2023/03/02 07:08:47;;;;;;;16.83;9.07;;;0.60;99.90;;;;;;5040610;28;20083;-74
2023/03/02 07:11:13;;;;;;;20.95;10.18;;;0.60;99.90;;;;;;5042101;28;20627;-74
2023/03/02 07:13:39;;;;;;;20.20;9.10;;;0.60;99.90;;;;;;5042291;28;20120;-73
2023/03/02 07:16:12;;;;;;;18.25;9.52;;;0.70;99.90;;;;;;5044920;28;20023;-74
2023/03/02 07:18:39;;;;;;;19.02;8.90;;;0.70;99.90;;;;;;5035451;28;20662;-73
2023/03/02 07:21:06;;;;;;;18.17;9.38;;;0.70;99.90;;;;;;5039182;28;20047;-74
2023/03/02 07:23:34;;;;;;;20.52;9.40;;;0.70;99.90;;;;;;5041713;28;20537;-73
2023/03/02 07:26:00;;;;;;;17.25;9.40;;;0.70;99.90;;;;;;5045785;28;20040;-73
2023/03/02 07:28:26;;;;;;;17.58;9.77;;;0.70;99.90;;;;;;5041199;28;20029;-73
2023/03/02 07:30:53;;;;;;;17.88;9.75;;;0.80;99.90;;;;;;5044354;28;20046;-73
2023/03/02 07:33:25;;;;;;;20.83;9.90;;;0.90;99.90;;;;;;5051108;28;20048;-74
2023/03/02 07:35:52;;;;;;;22.80;10.50;;;0.90;99.90;;;;;;5043129;28;20036;-74
2023/03/02 07:38:17;;;;;;;19.30;9.25;;;1.00;99.90;;;;;;5051734;28;20025;-74
2023/03/02 07:40:47;;;;;;;18.20;9.30;;;1.00;99.90;;;;;;5042886;28;20840;-74
2023/03/02 07:43:13;;;;;;;19.08;9.75;;;1.10;99.90;;;;;;5038602;28;20719;-74
2023/03/02 07:45:39;;;;;;;18.10;9.27;;;;;;;;;;5040835;28;20033;-73
2023/03/02 07:48:06;;;;;;;19.17;9.10;;;1.10;99.90;;;;;;5051845;28;20036;-74
2023/03/02 07:50:32;;;;;;;20.13;9.68;;;1.20;99.90;;;;;;5039547;28;20072;-74
2023/03/02 07:53:00;;;;;;;17.00;9.32;;;1.20;99.90;;;;;;5042612;28;20055;-74
2023/03/02 07:55:28;;;;;;;23.85;9.95;;;;;;;;;;5047577;28;20393;-74
2023/03/02 07:57:54;;;;;;;17.40;9.32;;;1.30;99.90;;;;;;5038164;28;20040;-74
2023/03/02 08:00:21;;;;;;;19.48;9.45;;;1.30;99.90;;;;;;5037389;28;20037;-75
2023/03/02 08:02:47;;;;;;;17.67;8.70;;;1.40;99.90;;;;;;5035500;28;20098;-75
2023/03/02 08:05:14;;;;;;;18.20;9.20;;;1.50;99.90;;;;;;5041911;28;20040;-75
2023/03/02 08:07:41;;;;;;;18.30;9.52;;;1.50;99.90;;;;;;5037026;28;20070;-75
2023/03/02 08:10:10;;;;;;;19.70;9.85;;;1.60;99.90;;;;;;5037468;28;20071;-74
2023/03/02 08:12:36;;;;;;;19.30;8.60;;;1.60;99.90;;;;;;5046673;28;20295;-75
2023/03/02 08:15:05;;;;;;;18.65;9.10;;;1.70;99.90;;;;;;5045033;28;20029;-74
2023/03/02 08:17:31;;;;;;;16.23;8.90;;;1.80;99.90;;;;;;5052204;28;20041;-74
2023/03/02 08:19:57;;;;;;;16.77;8.55;;;2.00;99.90;;;;;;5036055;28;20326;-74
2023/03/02 08:22:24;;;;;;;14.57;8.35;;;2.10;99.90;;;;;;5048622;28;20041;-73
2023/03/02 08:24:50;;;;;;;17.65;8.30;;;2.10;99.90;;;;;;5054597;28;20032;-73
2023/03/02 08:27:16;;;;;;;14.88;7.78;;;2.30;99.90;;;;;;5036248;28;20036;-73
2023/03/02 08:29:42;;;;;;;16.52;8.65;;;2.40;99.90;;;;;;5037608;28;20037;-73
2023/03/02 08:32:08;;;;;;;15.90;8.75;;;2.50;99.90;;;;;;5031552;28;20106;-72
2023/03/02 08:34:34;;;;;;;16.77;8.10;;;2.60;99.90;;;;;;5028316;28;20404;-73
2023/03/02 08:37:03;;;;;;;18.45;8.88;;;;;;;;;;5030776;28;20033;-73
2023/03/02 08:39:30;;;;;;;14.65;8.15;;;2.80;99.90;;;;;;5031819;28;20544;-73
2023/03/02 08:42:02;;;;;;;15.63;8.30;;;2.90;99.90;;;;;;5033243;28;20074;-73
2023/03/02 08:44:36;;;;;;;14.05;7.95;;;3.10;99.90;;;;;;5034598;28;20041;-73
2023/03/02 08:47:05;;;;;;;15.10;8.32;;;3.20;99.90;;;;;;5042400;28;20037;-73
2023/03/02 08:49:31;;;;;;;16.63;8.63;;;3.30;99.90;;;;;;5038771;28;20025;-73
2023/03/02 08:52:03;;;;;;;15.52;7.75;;;;;;;;;;5040848;28;21034;-73
2023/03/02 08:54:30;;;;;;;18.80;8.27;;;;;;;;;;5038527;28;20025;-73
2023/03/02 08:56:57;;;;;;;16.23;8.25;;;;;;;;;;5033023;28;20118;-73
2023/03/02 08:59:23;;;;;;;17.02;8.20;;;3.60;99.90;;;;;;5033488;28;20037;-73
2023/03/02 09:01:53;;;;;;;17.40;8.27;;;3.70;99.90;;;;;;5035759;28;20465;-73
2023/03/02 09:04:28;;;;;;;15.57;7.55;;;3.70;99.90;;;;;;5054768;28;20044;-72
2023/03/02 09:07:00;;;;;;;13.82;7.60;;;;;;;;;;5039895;28;20059;-72
2023/03/02 09:09:31;;;;;;;11.68;7.00;;;;;;;;;;5045128;28;20029;-72
2023/03/02 09:11:59;;;;;;;15.20;7.65;;;3.70;99.90;;;;;;5042620;28;20497;-72
2023/03/02 09:14:33;;;;;;;14.82;8.02;;;4.00;99.90;;;;;;5037506;28;20389;-71
2023/03/02 09:16:58;;;;;;;;;;;4.00;99.90;;;;;;5043795;28;20033;-74
2023/03/02 09:19:40;;;;;;;14.52;8.20;;;4.10;99.90;;;;;;5044882;28;20039;-74
2023/03/02 09:22:12;;;;;;;14.40;7.93;;;4.20;99.90;;;;;;5040318;28;20037;-74
2023/03/02 09:24:44;;;;;;;23.35;8.85;;;4.30;99.90;;;;;;5046873;28;20043;-73
2023/03/02 09:27:16;;;;;;;15.50;7.90;;;4.40;99.90;;;;;;5036538;28;20037;-75
2023/03/02 09:29:53;;;;;;;14.07;7.57;;;4.50;99.90;;;;;;5046723;28;20362;-74
2023/03/02 09:32:22;;;;;;;13.57;7.68;;;4.60;99.90;;;;;;5042068;28;20556;-74
2023/03/02 09:34:56;;;;;;;13.40;8.23;;;4.60;99.90;;;;;;5033006;28;20033;-74
2023/03/02 09:37:34;;;;;;;15.60;7.90;;;4.70;99.90;;;;;;5047874;28;20025;-75
2023/03/02 09:40:00;;;;;;;15.32;8.00;;;4.60;99.90;;;;;;5044912;28;20119;-74
2023/03/02 09:42:44;;;;;;;16.80;8.23;;;4.70;99.90;;;;;;5038354;28;20055;-74
2023/03/02 09:45:32;;;;;;;;;;;4.80;99.90;;;;;;5046693;28;20069;-74
2023/03/02 09:48:30;;;;;;;15.02;8.02;;;4.90;99.90;;;;;;5047224;28;20303;-73
2023/03/02 09:51:19;;;;;;;13.30;7.60;;;5.00;99.90;;;;;;5034291;28;20080;-74
2023/03/02 09:53:50;;;;;;;16.33;8.45;;;5.00;99.90;;;;;;5038435;28;20118;-74
2023/03/02 09:56:28;;;;;;;14.00;8.23;;;5.10;99.90;;;;;;5046724;28;20099;-73
2023/03/02 09:59:04;;;;;;;17.27;8.55;;;5.10;99.90;;;;;;5041131;28;20038;-74
2023/03/02 10:01:42;;;;;;;16.85;8.35;;;5.30;99.90;;;;;;5039238;28;20512;-73
2023/03/02 10:04:21;;;;;;;16.35;8.20;;;5.40;99.90;;;;;;5029306;28;20038;-74
2023/03/02 10:07:11;;;;;;;15.23;8.18;;;5.50;99.90;;;;;;5040876;28;20163;-74
2023/03/02 10:09:42;;;;;;;14.27;8.23;;;;;;;;;;5032373;28;20116;-74
2023/03/02 10:12:30;;;;;;;13.15;7.70;;;;;;;;;;5040732;28;20032;-73
2023/03/02 10:15:01;;;;;;;15.15;8.60;;;;;;;;;;5038826;28;20377;-74
2023/03/02 10:17:51;;;;;;;14.65;8.07;;;;;;;;;;5042535;28;20119;-74
2023/03/02 10:20:38;;;;;;;16.13;8.00;;;;;;;;;;5031295;28;20072;-74
2023/03/02 10:23:19;;;;;;;16.48;8.20;;;;;;;;;;5032620;28;20087;-74
2023/03/02 10:25:54;;;;;;;18.17;7.97;;;;;;;;;;5033370;28;20262;-74
2023/03/02 10:28:28;;;;;;;13.32;7.60;;;;;;;;;;5041946;28;20076;-74
2023/03/02 10:31:01;;;;;;;18.27;8.30;;;;;;;;;;5047380;28;20350;-74
2023/03/02 10:33:35;;;;;;;16.57;7.53;;;;;;;;;;5038085;28;20060;-74
2023/03/02 10:36:07;;;;;;;13.90;7.65;;;;;;;;;;5043691;28;20349;-74
2023/03/02 10:38:37;;;;;;;14.63;7.70;;;;;;;;;;5037563;28;20484;-74
2023/03/02 10:41:18;;;;;;;13.07;7.35;;;6.70;99.90;;;;;;5047846;28;20036;-75
2023/03/02 10:44:15;;;;;;;13.40;7.18;;;6.70;99.90;;;;;;5038706;28;20485;-74
2023/03/02 10:46:53;;;;;;;18.23;7.80;;;6.60;99.90;;;;;;5045190;28;20037;-74
2023/03/02 10:49:35;;;;;;;13.32;7.10;;;6.60;99.20;;;;;;5045583;28;20032;-74
2023/03/02 10:52:13;;;;;;;11.80;7.13;;;6.60;99.90;;;;;;5047956;28;20106;-74
2023/03/02 10:54:46;;;;;;;15.85;7.18;;;6.60;99.90;;;;;;5040080;28;20036;-74
2023/03/02 10:57:29;;;;;;;;;;;6.70;99.90;;;;;;5031910;28;20079;-74
2023/03/02 11:00:04;;;;;;;11.63;7.00;;;6.70;99.90;;;;;;5041590;28;19909;-73
2023/03/02 11:02:35;;;;;;;14.40;7.47;;;6.70;98.10;;;;;;5034880;28;20030;-74
2023/03/02 11:05:30;;;;;;;19.60;6.95;;;6.70;98.80;;;;;;5040480;28;20106;-73
2023/03/02 11:08:07;;;;;;;13.90;6.70;;;6.70;99.00;;;;;;5046451;28;20060;-74
2023/03/02 11:10:59;;;;;;;11.70;6.15;;;6.70;99.30;;;;;;5037240;28;20213;-74
2023/03/02 11:13:40;;;;;;;10.95;6.20;;;6.80;98.80;;;;;;5033857;28;20236;-74
2023/03/02 11:16:22;;;;;;;10.85;6.05;;;6.80;97.30;;;;;;5039863;28;20021;-73
2023/03/02 11:19:02;;;;;;;12.65;5.63;;;6.90;95.00;;;;;;5033964;28;20033;-73
2023/03/02 11:21:49;;;;;;;9.13;5.15;;;7.00;94.70;;;;;;5042761;28;20064;-74
2023/03/02 11:24:33;;;;;;;12.13;5.05;;;7.00;91.30;;;;;;5031832;28;20091;-73
2023/03/02 11:27:24;;;;;;;8.75;5.07;;;7.10;86.20;;;;;;5042715;28;20112;-73
2023/03/02 11:30:05;;;;;;;8.55;5.28;;;7.30;82.10;;;;;;5043465;28;20031;-74
2023/03/02 11:32:42;;;;;;;12.55;5.07;;;7.40;84.40;;;;;;5043705;28;20132;-74
2023/03/02 11:35:36;;;;;;;9.82;4.38;;;7.50;83.00;;;;;;5035176;28;20044;-73
2023/03/02 11:38:19;;;;;;;7.35;4.47;;;7.50;83.00;;;;;;5046615;28;20287;-74
2023/03/02 11:41:01;;;;;;;8.73;4.82;;;7.50;82.40;;;;;;5045771;28;20049;-74
2023/03/02 11:43:34;;;;;;;9.57;4.83;;;7.60;89.10;;;;;;5041918;28;20036;-74
2023/03/02 11:46:12;;;;;;;6.13;3.53;;;7.50;83.90;;;;;;5044840;28;20060;-75
2023/03/02 11:48:55;;;;;;;8.30;4.95;;;7.50;89.40;;;;;;5031078;28;20071;-74
2023/03/02 11:51:36;;;;;;;7.30;4.68;;;7.60;88.80;;;;;;5029899;28;20037;-74
2023/03/02 11:54:27;;;;;;;9.25;5.20;;;7.50;87.50;;;;;;5042458;28;20047;-74
2023/03/02 11:57:02;;;;;;;9.32;5.47;;;7.60;89.40;;;;;;5038200;28;20489;-74
2023/03/02 11:59:37;;;;;;;9.77;5.40;;;7.60;91.00;;;;;;5045584;28;20429;-74
2023/03/02 12:02:16;;;;;;;11.55;5.40;;;7.70;92.10;;;;;;5040938;28;20501;-74
2023/03/02 12:05:02;;;;;;;10.68;5.30;;;7.80;92.40;;;;;;5030055;28;20033;-74
2023/03/02 12:07:35;;;;;;;8.75;5.70;;;7.80;90.40;;;;;;5034970;28;20022;-73
2023/03/02 12:10:33;;;;;;;11.80;6.45;;;7.80;91.20;;;;;;5036416;28;20480;-74
2023/03/02 12:13:22;;;;;;;11.10;5.20;;;7.90;94.90;;;;;;5044808;28;20032;-73
2023/03/02 12:16:00;;;;;;;11.50;4.70;;;7.90;92.00;;;;;;5050501;28;20111;-74
2023/03/02 12:18:43;;;;;;;8.45;4.95;;;8.00;89.10;;;;;;5030168;28;20486;-73
2023/03/02 12:21:23;;;;;;;8.65;4.68;;;8.10;90.80;;;;;;5030938;28;20049;-74
2023/03/02 12:23:57;;;;;;;7.97;4.68;;;8.10;91.50;;;;;;5043127;28;20484;-73
2023/03/02 12:26:41;;;;;;;8.80;5.40;;;8.20;94.00;;;;;;5036127;28;20037;-74
2023/03/02 12:29:13;;;;;;;9.48;5.25;;;8.20;91.50;;;;;;5048052;28;20557;-73
2023/03/02 12:31:55;;;;;;;10.05;5.50;;;8.20;90.90;;;;;;5048703;28;20061;-73
2023/03/02 12:34:24;;;;;;;11.32;6.00;;;;;;;;;;5048367;28;20072;-73
2023/03/02 12:37:02;;;;;;;11.18;5.80;;;;;;;;;;5044154;28;20476;-74
2023/03/02 12:39:49;;;;;;;9.20;5.15;;;;;;;;;;5045581;28;20049;-73
2023/03/02 12:42:22;;;;;;;12.70;5.32;;;;;;;;;;5033059;28;20080;-73
2023/03/02 12:44:56;;;;;;;10.23;5.97;;;;;;;;;;5046480;28;20041;-73
2023/03/02 12:47:26;;;;;;;12.80;5.90;;;;;;;;;;5049948;28;20033;-74
2023/03/02 12:50:24;;;;;;;12.27;6.38;;;;;;;;;;5049311;28;20055;-74
2023/03/02 12:53:09;;;;;;;11.68;6.38;;;;;;;;;;5046023;28;20495;-74
2023/03/02 12:55:39;;;;;;;10.55;6.57;;;;;;;;;;5045929;28;20119;-74
2023/03/02 12:58:31;;;;;;;12.70;5.90;;;;;;;;;;5045017;28;20033;-74
2023/03/02 13:01:01;;;;;;;11.15;5.32;;;;;;;;;;5049846;28;20053;-74
2023/03/02 13:03:30;;;;;;;10.70;5.63;;;;;;;;;;5041190;28;20033;-74
2023/03/02 13:06:03;;;;;;;11.10;5.65;;;;;;;;;;5042503;28;20041;-74
2023/03/02 13:08:34;;;;;;;8.07;5.15;;;;;;;;;;5034536;28;20036;-74
2023/03/02 13:11:03;;;;;;;9.20;5.43;;;;;;;;;;5046462;28;20035;-74
2023/03/02 13:13:44;;;;;;;7.95;4.90;;;;;;;;;;5036631;28;20022;-74
2023/03/02 13:16:24;;;;;;;11.27;4.85;;;;;;;;;;5032782;28;20013;-74
2023/03/02 13:18:58;;;;;;;7.57;4.90;;;;;;;;;;5029241;28;20049;-74
2023/03/02 13:21:40;;;;;;;8.32;4.97;;;;;;;;;;5034482;28;20404;-74
2023/03/02 13:24:25;;;;;;;8.48;5.30;;;;;;;;;;5043830;28;20029;-74
2023/03/02 13:27:01;;;;;;;9.75;4.75;;;;;;;;;;5046084;28;20659;-73
2023/03/02 13:29:34;;;;;;;8.85;5.60;;;;;;;;;;5045050;28;20041;-73
2023/03/02 13:32:24;;;;;;;10.25;5.50;;;;;;;;;;5040493;28;20292;-74
2023/03/02 13:35:03;;;;;;;10.98;5.63;;;;;;;;;;5044863;28;20029;-74
2023/03/02 13:37:33;;;;;;;9.98;4.95;;;;;;;;;;5029379;28;20254;-74